Millenium Air

Millenium Air Since 1998



 METAR AND TAF INFORMATION
METAR FOR PADU
ADDS - METARS form results

(0751 UTC 29 January 2022)
Data provider http://aviationweather.gov/metar/data/
 
METAR text: PADU 290723Z AUTO VRB04KT 10SM BKN025 M03/M07 A2999 RMK AO2 FZRANO PNO $
Conditions at: PADU (DUTCH HARBOR , AK, US) observed 0723 UTC 29 January 2022
Temperature: -3.0°C (27°F)
Dewpoint: -7.0°C (19°F) [RH = 74%]
Pressure (altimeter): 29.99 inches Hg (1015.7 mb)
Winds: variable direction winds at 5 MPH (4 knots; 2.1 m/s)
Visibility: 10 or more miles (16+ km)
Ceiling: 2500 feet AGL
Clouds: broken clouds at 2500 feet AGL
Weather:
SOME DATA ABOVE MAY BE INACCURATE!!!
"$" is an indication the sensor requires maintenance

METAR text: PADU 290656Z AUTO 33003KT 10SM SCT025 M03/M08 A2998 RMK AO2 SLP157 T10281083 FZRANO PNO $
Conditions at: PADU (DUTCH HARBOR , AK, US) observed 0656 UTC 29 January 2022
Temperature: -2.8°C (27°F)
Dewpoint: -8.3°C (17°F) [RH = 66%]
Pressure (altimeter): 29.98 inches Hg (1015.3 mb)
[Sea-level pressure: 1015.7 mb]
Winds: from the NNW (330 degrees) at 3 MPH (3 knots; 1.5 m/s)
Visibility: 10 or more miles (16+ km)
Ceiling: at least 12,000 feet AGL
Clouds: scattered clouds at 2500 feet AGL
Weather:
SOME DATA ABOVE MAY BE INACCURATE!!!
"$" is an indication the sensor requires maintenance

Forecast for: PADU (DUTCH HARBOR , AK, US)
Text: PADU 290522Z 2906/3006 VRB06KT P6SM SCT025
Forecast period: 0600 UTC 29 January 2022 to 0600 UTC 30 January 2022
Forecast type: FROM: standard forecast or significant change
Winds: variable direction winds at 7 MPH (6 knots; 3.1 m/s)
Visibility: 6 or more miles (10+ km)
Ceiling: at least 12,000 feet AGL
Clouds: scattered clouds at 2500 feet AGL
Weather: no significant weather forecast for this period
Text: TEMPO 2906/2910 BKN025
Forecast period: 0600 to 1000 UTC 29 January 2022
Forecast type: TEMPORARY: The following changes expected for less than half the time period
Visibility: missing
Ceiling: 2500 feet AGL
Clouds: broken clouds at 2500 feet AGL
Weather: no significant weather forecast for this period

 AIRPORT MAP

 RUNWAY INFORMATION
Runway 12 Runway length 3900 ft Runway width 100 ft
Runway elevation 22 ft Runway displaced threshold 100 ft Runway heading 136
Runway 30 Runway length 3900 ft Runway width 100 ft
Runway elevation 13 ft Runway displaced threshold 101 ft Runway heading 316

 AIRPORT FREQUENCIES
Type AWOS Name AWOS 3 Frequency 125.8 MHZ
Type CNTR Name ANCHORAGE Frequency 121.4 MHZ
Type CTAF Name CTAF Frequency 122.6 MHZ
Type FSS Name COLD BAY R Frequency 122.6 MHZ
Type MISC Name DUTCH WX Frequency 129.5 MHZ

 AIRPORT NEAR NAVIGATION AIDS
Type NDB-DME Name Dutch Harbor Frequency 283 KHZ